createdAt,value
2022-11-19T00:05:57.801Z,-2.52
2022-11-19T00:15:34.094Z,-2.59
2022-11-19T00:25:10.446Z,-2.6
2022-11-19T00:34:46.415Z,-2.62
2022-11-19T00:44:22.834Z,-2.69
2022-11-19T00:53:59.316Z,-2.66
2022-11-19T01:03:35.991Z,-2.72
2022-11-19T01:13:12.466Z,-2.71
2022-11-19T01:22:49.073Z,-2.79
2022-11-19T01:32:25.307Z,-2.91
2022-11-19T01:42:01.770Z,-2.92
2022-11-19T01:51:37.723Z,-3.06
2022-11-19T02:01:14.195Z,-3.09
2022-11-19T02:10:50.475Z,-3.28
2022-11-19T02:20:26.357Z,-3.48
2022-11-19T02:30:02.300Z,-3.81
2022-11-19T02:39:38.587Z,-3.82
2022-11-19T02:49:14.866Z,-3.63
2022-11-19T02:58:50.907Z,-3.74
2022-11-19T03:08:27.323Z,-3.86
2022-11-19T03:18:03.733Z,-3.82
2022-11-19T03:27:40.150Z,-3.87
2022-11-19T03:37:16.488Z,-3.74
2022-11-19T03:46:52.861Z,-3.93
2022-11-19T03:56:29.253Z,-3.98
2022-11-19T04:06:05.408Z,-4.06
2022-11-19T04:15:41.824Z,-4.15
2022-11-19T04:25:17.526Z,-4.37
2022-11-19T04:34:54.023Z,-4.59
2022-11-19T04:44:30.548Z,-4.58
2022-11-19T04:54:06.994Z,-4.57
2022-11-19T05:03:43.331Z,-4.73
2022-11-19T05:13:19.616Z,-4.88
2022-11-19T05:22:55.881Z,-5.06
2022-11-19T05:32:32.295Z,-4.93
2022-11-19T05:42:08.474Z,-5.19
2022-11-19T05:51:45.185Z,-5.23
2022-11-19T06:01:21.254Z,-5.25
2022-11-19T06:10:57.707Z,-5.62
2022-11-19T06:20:33.609Z,-5.78
2022-11-19T06:30:09.543Z,-5.65
2022-11-19T06:39:46.202Z,-5.22
2022-11-19T06:49:23.457Z,-5.15
2022-11-19T06:58:59.140Z,-5.31
2022-11-19T07:08:35.642Z,-5.02
2022-11-19T07:18:12.431Z,-4.85
2022-11-19T07:27:49.221Z,-4.62
2022-11-19T07:37:26.109Z,-4.37
2022-11-19T07:47:03.117Z,-4.06
2022-11-19T07:56:39.887Z,-3.97
2022-11-19T08:06:17.172Z,-3.55
2022-11-19T08:15:54.242Z,-3.55
2022-11-19T08:25:31.016Z,-3.75
2022-11-19T08:35:07.536Z,-3.82
2022-11-19T08:44:44.340Z,-3.78
2022-11-19T08:54:21.842Z,-3.79
2022-11-19T09:03:56.959Z,-3.9
2022-11-19T09:13:32.440Z,-3.68
2022-11-19T09:23:08.823Z,-3.3
2022-11-19T09:32:45.545Z,-3.09
2022-11-19T09:42:22.298Z,-2.93
2022-11-19T09:51:58.885Z,-2.73
2022-11-19T10:01:35.513Z,-2.46
2022-11-19T10:11:12.497Z,-2.24
2022-11-19T10:20:49.326Z,-1.89
2022-11-19T10:30:26.242Z,-1.67
2022-11-19T10:40:03.261Z,-1.65
2022-11-19T10:49:40.173Z,-1.48
2022-11-19T10:59:17.936Z,-1.27
2022-11-19T11:08:54.602Z,-0.66
2022-11-19T11:18:31.828Z,-0.43
2022-11-19T11:28:08.761Z,-0.33
2022-11-19T11:37:44.900Z,-0.87
2022-11-19T11:47:21.947Z,-0.35
2022-11-19T11:56:58.820Z,-0.26
2022-11-19T12:06:36.091Z,-0.35
2022-11-19T12:16:13.322Z,-0.1
2022-11-19T12:25:51.353Z,0.27
2022-11-19T12:35:28.788Z,0.15
2022-11-19T12:45:07.471Z,1.48
2022-11-19T12:55:23.268Z,1.4
2022-11-19T13:05:09.192Z,1.85
2022-11-19T13:14:54.557Z,2.31
2022-11-19T13:24:29.571Z,2.15
2022-11-19T13:33:53.392Z,2.05
2022-11-19T13:43:39.792Z,2.07
2022-11-19T13:53:20.573Z,1.15
2022-11-19T14:02:54.395Z,2
2022-11-19T14:12:12.034Z,1.36
2022-11-19T14:21:43.207Z,0.58
2022-11-19T14:31:15.662Z,-0.23
2022-11-19T14:40:49.201Z,-0.64
2022-11-19T14:50:23.369Z,-1.12
2022-11-19T14:59:58.515Z,-1.57
2022-11-19T15:09:33.373Z,-1.93
2022-11-19T15:19:08.640Z,-2.19
2022-11-19T15:28:44.523Z,-2.49
2022-11-19T15:38:20.345Z,-2.95
2022-11-19T15:47:55.486Z,-3.12
2022-11-19T15:57:30.710Z,-3.4
2022-11-19T16:07:06.285Z,-3.56
2022-11-19T16:16:42.166Z,-3.7
2022-11-19T16:26:18.391Z,-3.89
2022-11-19T16:35:54.502Z,-3.85
2022-11-19T16:45:30.907Z,-4.06
2022-11-19T16:55:06.979Z,-4.3
2022-11-19T17:04:43.034Z,-4.5
2022-11-19T17:14:19.369Z,-4.61
2022-11-19T17:23:55.034Z,-4.8
2022-11-19T17:33:35.424Z,-4.91
2022-11-19T17:52:42.711Z,-5.21
2022-11-19T18:02:18.800Z,-5.35
2022-11-19T18:11:54.932Z,-5.48
2022-11-19T18:21:31.224Z,-5.61
2022-11-19T18:31:07.009Z,-5.77
2022-11-19T18:40:43.026Z,-5.88
2022-11-19T18:50:19.015Z,-5.99
2022-11-19T19:09:30.864Z,-6.18
2022-11-19T19:19:07.007Z,-6.26
2022-11-19T19:28:42.989Z,-6.39
2022-11-19T19:38:19.187Z,-6.51
2022-11-19T19:47:55.016Z,-6.69
2022-11-19T19:57:31.051Z,-6.71
2022-11-19T20:07:06.591Z,-6.79
2022-11-19T20:16:42.446Z,-6.91
2022-11-19T20:26:18.640Z,-6.75
2022-11-19T20:35:54.466Z,-6.86
2022-11-19T20:55:06.895Z,-6.89
2022-11-19T21:04:42.502Z,-7.06
2022-11-19T21:14:18.386Z,-7.15
2022-11-19T21:23:54.232Z,-7.1
2022-11-19T21:33:30.491Z,-7.26
2022-11-19T21:43:06.564Z,-7.15
2022-11-19T21:52:43.251Z,-6.75
2022-11-19T22:02:19.460Z,-6.45
2022-11-19T22:11:55.973Z,-6.47
2022-11-19T22:21:33.442Z,-6.59
2022-11-19T22:31:08.276Z,-6.71
2022-11-19T22:40:44.174Z,-6.63
2022-11-19T22:50:20.668Z,-6.52
2022-11-19T22:59:57.072Z,-6.51
2022-11-19T23:09:33.334Z,-6.51
2022-11-19T23:19:09.704Z,-6.43
2022-11-19T23:28:46.154Z,-6.34
2022-11-19T23:38:22.472Z,-6.37
2022-11-19T23:47:58.629Z,-6.49
2022-11-19T23:57:34.560Z,-6.47
